Time;durP1;ratioP1;P1;durP2;ratioP2;P2;SDS_P1;SDS_P2;PMS_P1;PMS_P2;Temp;Humidity;BMP_temperature;BMP_pressure;BME280_temperature;BME280_humidity;BME280_pressure;Samples;Min_cycle;Max_cycle;Signal;HPM_P1;HPM_P2
2023/08/26 00:00:16;;;;;;;0.03;0.03;;;;;;;25.27;60.76;100931.47;5069414;28;20063;-68
2023/08/26 00:02:41;;;;;;;0.10;0.10;;;;;;;24.68;62.21;100926.53;5069358;28;20036;-66
2023/08/26 00:05:07;;;;;;;0.00;0.00;;;;;;;24.24;63.18;100919.19;5068829;28;20063;-68
2023/08/26 00:07:32;;;;;;;0.10;0.10;;;;;;;25.00;61.43;100928.97;5069703;28;20043;-67
2023/08/26 00:09:58;;;;;;;0.10;0.10;;;;;;;24.24;62.61;100922.75;5054503;28;20056;-67
2023/08/26 00:12:23;;;;;;;0.00;0.00;;;;;;;24.84;61.01;100916.78;5049216;28;20033;-67
2023/08/26 00:14:48;;;;;;;0.00;0.00;;;;;;;25.11;60.60;100919.28;5031489;28;20029;-68
2023/08/26 00:17:14;;;;;;;0.00;0.00;;;;;;;24.52;61.73;100914.34;5049119;28;20020;-67
2023/08/26 00:19:39;;;;;;;0.00;0.00;;;;;;;24.88;60.13;100921.34;5049561;28;20471;-67
2023/08/26 00:22:05;;;;;;;0.08;0.08;;;;;;;25.13;60.07;100917.84;5049054;28;20036;-68
2023/08/26 00:24:30;;;;;;;0.00;0.00;;;;;;;24.75;60.97;100913.97;5035730;28;20045;-68
2023/08/26 00:26:58;;;;;;;0.10;0.10;;;;;;;24.40;61.68;100923.97;5029017;28;20029;-69
2023/08/26 00:29:23;;;;;;;0.00;0.00;;;;;;;24.01;62.47;100921.13;5029220;28;20103;-68
2023/08/26 00:31:49;;;;;;;0.00;0.00;;;;;;;24.59;61.31;100912.75;5029884;28;20025;-68
2023/08/26 00:34:14;;;;;;;0.10;0.10;;;;;;;24.50;61.54;100911.91;5029031;28;20505;-68
2023/08/26 00:36:40;;;;;;;0.03;0.03;;;;;;;24.63;61.29;100916.47;5028843;28;20037;-68
2023/08/26 00:39:05;;;;;;;0.00;0.00;;;;;;;24.74;60.57;100917.06;5028930;28;20045;-69
2023/08/26 00:41:30;;;;;;;0.00;0.00;;;;;;;24.65;61.04;100916.19;5029087;28;20041;-67
2023/08/26 00:43:56;;;;;;;0.03;0.03;;;;;;;24.99;59.87;100911.66;5030791;28;20499;-67
2023/08/26 00:46:23;;;;;;;0.10;0.10;;;;;;;25.02;59.90;100922.00;5048763;28;20033;-67
2023/08/26 00:48:49;;;;;;;0.00;0.00;;;;;;;25.09;59.17;100921.53;5048528;28;20041;-67
2023/08/26 00:51:15;;;;;;;0.03;0.03;;;;;;;24.71;59.95;100920.38;5048363;28;20037;-69
2023/08/26 00:53:40;;;;;;;0.10;0.10;;;;;;;25.01;59.23;100914.88;5028765;28;20037;-68
2023/08/26 00:56:05;;;;;;;0.10;0.10;;;;;;;24.50;60.94;100916.59;5010904;28;20029;-68
2023/08/26 00:58:32;;;;;;;0.00;0.00;;;;;;;24.86;60.70;100917.28;5029107;28;20387;-69
2023/08/26 01:00:57;;;;;;;0.00;0.00;;;;;;;25.03;59.31;100917.31;5041014;28;20029;-68
2023/08/26 01:03:23;;;;;;;0.10;0.10;;;;;;;25.08;58.92;100914.44;5048356;28;20551;-67
2023/08/26 01:05:48;;;;;;;0.10;0.10;;;;;;;25.09;59.14;100916.84;5036855;28;20106;-68
2023/08/26 01:08:13;;;;;;;0.10;0.10;;;;;;;24.94;60.02;100913.75;5028799;28;20385;-68
2023/08/26 01:10:42;;;;;;;0.00;0.00;;;;;;;24.97;59.86;100908.41;5029187;28;20524;-67
2023/08/26 01:13:12;;;;;;;0.00;0.00;;;;;;;25.12;59.97;100902.44;5028715;28;20512;-68
2023/08/26 01:15:40;;;;;;;;;;;;;;;25.61;58.67;100892.97;5028970;28;20026;-68
2023/08/26 01:18:08;;;;;;;0.10;0.10;;;;;;;25.24;59.40;100893.56;5028318;28;20258;-68
2023/08/26 01:20:34;;;;;;;0.10;0.10;;;;;;;25.04;60.35;100894.97;5028136;28;20094;-68
2023/08/26 01:23:05;;;;;;;0.00;0.00;;;;;;;25.17;59.84;100899.56;5029171;28;20030;-67
2023/08/26 01:25:31;;;;;;;0.10;0.10;;;;;;;25.19;59.69;100899.22;5048487;28;20051;-68
2023/08/26 01:27:58;;;;;;;0.00;0.00;;;;;;;25.00;60.31;100894.00;5048203;28;20037;-67
2023/08/26 01:30:26;;;;;;;0.00;0.00;;;;;;;24.88;60.41;100891.09;5048242;28;20068;-67
2023/08/26 01:33:01;;;;;;;0.10;0.10;;;;;;;24.82;60.97;100903.34;5048317;28;20025;-67
2023/08/26 01:35:31;;;;;;;0.00;0.00;;;;;;;24.84;60.74;100897.53;5047994;28;20029;-68
2023/08/26 01:37:58;;;;;;;0.10;0.10;;;;;;;25.12;60.29;100894.19;5020059;28;20389;-67
2023/08/26 01:40:24;;;;;;;0.00;0.00;;;;;;;25.17;59.41;100896.81;5028241;28;20069;-66
2023/08/26 01:42:52;;;;;;;0.00;0.00;;;;;;;25.04;60.06;100896.94;5038888;28;20460;-68
2023/08/26 01:45:18;;;;;;;0.00;0.00;;;;;;;24.97;60.19;100902.91;5048286;28;20119;-68
2023/08/26 01:47:44;;;;;;;0.00;0.00;;;;;;;24.26;61.57;100904.03;5047887;28;20154;-68
2023/08/26 01:50:10;;;;;;;0.00;0.00;;;;;;;24.15;62.02;100896.38;5048422;28;20108;-69
2023/08/26 01:52:35;;;;;;;0.00;0.00;;;;;;;24.68;60.99;100901.81;5048544;28;20044;-67
2023/08/26 01:55:00;;;;;;;0.00;0.00;;;;;;;24.14;62.41;100898.28;5048033;28;20169;-67
2023/08/26 01:57:26;;;;;;;0.00;0.00;;;;;;;24.69;60.71;100904.22;5047781;28;20076;-68
2023/08/26 01:59:51;;;;;;;0.00;0.00;;;;;;;24.41;61.18;100900.88;5048170;28;20037;-68
2023/08/26 02:02:17;;;;;;;0.10;0.10;;;;;;;24.33;60.68;100901.63;5034412;28;20048;-68
2023/08/26 02:04:42;;;;;;;0.00;0.00;;;;;;;23.97;62.78;100898.16;5029951;28;20033;-67
2023/08/26 02:07:07;;;;;;;0.00;0.00;;;;;;;24.49;60.56;100893.00;5031507;28;20087;-68
2023/08/26 02:09:33;;;;;;;0.10;0.10;;;;;;;24.03;61.33;100887.88;5047093;28;20556;-68
2023/08/26 02:11:59;;;;;;;0.10;0.10;;;;;;;23.59;63.03;100898.84;5031706;28;20299;-68
2023/08/26 02:14:24;;;;;;;0.00;0.00;;;;;;;24.56;60.24;100896.09;5031650;28;20037;-67
2023/08/26 02:16:50;;;;;;;0.00;0.00;;;;;;;24.17;60.54;100896.88;5032017;28;20017;-68
2023/08/26 02:19:15;;;;;;;0.00;0.00;;;;;;;24.23;61.14;100899.19;5046616;28;20050;-68
2023/08/26 02:21:41;;;;;;;0.10;0.10;;;;;;;23.89;62.20;100900.84;5031247;28;20038;-68
2023/08/26 02:24:07;;;;;;;0.10;0.10;;;;;;;23.58;62.78;100897.19;5040910;28;20065;-68
2023/08/26 02:26:32;;;;;;;0.03;0.03;;;;;;;23.97;61.11;100889.09;5051131;28;20561;-68
2023/08/26 02:28:58;;;;;;;0.10;0.10;;;;;;;24.48;60.24;100894.09;5051849;28;20037;-68
2023/08/26 02:31:23;;;;;;;0.10;0.10;;;;;;;24.14;61.12;100901.03;5050930;28;20377;-68
2023/08/26 02:33:48;;;;;;;0.00;0.00;;;;;;;24.64;59.90;100898.88;5050936;28;20057;-68
2023/08/26 02:36:14;;;;;;;0.10;0.10;;;;;;;24.64;59.48;100898.88;5050990;28;20425;-68
2023/08/26 02:38:39;;;;;;;0.00;0.00;;;;;;;24.27;60.82;100902.09;5051253;28;20082;-68
2023/08/26 02:41:05;;;;;;;0.10;0.10;;;;;;;23.71;61.56;100899.06;5050964;28;20048;-68
2023/08/26 02:43:30;;;;;;;0.10;0.10;;;;;;;24.38;60.18;100903.44;5051139;28;20017;-68
2023/08/26 02:45:57;;;;;;;0.10;0.10;;;;;;;24.34;60.75;100900.53;5050555;28;20041;-67
2023/08/26 02:48:23;;;;;;;0.10;0.10;;;;;;;24.33;60.07;100895.34;5049312;28;20046;-68
2023/08/26 02:50:59;;;;;;;0.03;0.03;;;;;;;24.59;59.58;100890.75;5050691;28;20041;-67
2023/08/26 02:53:26;;;;;;;0.00;0.00;;;;;;;24.55;59.71;100889.78;5062529;28;20036;-67
2023/08/26 02:55:53;;;;;;;0.10;0.10;;;;;;;24.02;60.81;100891.75;5071164;28;20029;-68
2023/08/26 02:58:19;;;;;;;0.00;0.00;;;;;;;24.30;59.88;100890.47;5058833;28;20029;-67
2023/08/26 03:00:44;;;;;;;0.05;0.05;;;;;;;24.27;60.69;100885.63;5050322;28;20045;-67
2023/08/26 03:03:10;;;;;;;0.00;0.00;;;;;;;24.52;60.21;100884.09;5050425;28;20566;-67
2023/08/26 03:05:35;;;;;;;0.08;0.08;;;;;;;24.48;59.84;100889.44;5050508;28;20074;-68
2023/08/26 03:08:01;;;;;;;0.00;0.00;;;;;;;24.58;59.38;100886.41;5050678;28;20031;-66
2023/08/26 03:10:26;;;;;;;0.00;0.00;;;;;;;23.80;60.87;100886.25;5050940;28;20041;-68
2023/08/26 03:12:53;;;;;;;0.10;0.10;;;;;;;23.96;60.74;100877.31;5050486;28;20048;-66
2023/08/26 03:15:19;;;;;;;0.00;0.00;;;;;;;24.01;60.01;100879.13;5050197;28;20082;-68
2023/08/26 03:17:44;;;;;;;0.00;0.00;;;;;;;24.51;58.69;100875.03;5049976;28;20036;-68
2023/08/26 03:20:10;;;;;;;0.00;0.00;;;;;;;24.59;58.74;100871.53;5050186;28;20060;-68
2023/08/26 03:22:35;;;;;;;0.00;0.00;;;;;;;24.26;59.53;100873.00;5032501;28;20032;-68
2023/08/26 03:25:01;;;;;;;0.10;0.10;;;;;;;24.27;59.40;100877.38;5049848;28;20052;-67
2023/08/26 03:27:27;;;;;;;0.10;0.10;;;;;;;24.21;59.04;100873.13;5049887;28;20092;-68
2023/08/26 03:29:52;;;;;;;0.10;0.10;;;;;;;24.03;60.12;100874.16;5050118;28;20392;-68
2023/08/26 03:32:18;;;;;;;0.05;0.05;;;;;;;24.08;60.31;100874.00;5049865;28;20441;-67
2023/08/26 03:34:43;;;;;;;0.10;0.10;;;;;;;23.81;60.52;100882.38;5050287;28;20880;-68
2023/08/26 03:37:10;;;;;;;0.10;0.10;;;;;;;22.78;63.76;100889.59;5049872;28;20032;-68
2023/08/26 03:39:35;;;;;;;0.10;0.10;;;;;;;22.77;64.89;100887.16;5049792;28;20405;-68
2023/08/26 03:42:00;;;;;;;0.10;0.10;;;;;;;23.22;63.84;100897.16;5049894;28;20032;-68
2023/08/26 03:44:26;;;;;;;0.05;0.05;;;;;;;23.21;63.11;100887.31;5038589;28;20029;-67
2023/08/26 03:46:51;;;;;;;0.10;0.10;;;;;;;22.75;65.00;100894.88;5050146;28;20670;-68
2023/08/26 03:49:17;;;;;;;0.10;0.10;;;;;;;23.31;63.66;100893.41;5058313;28;20040;-67
2023/08/26 03:51:42;;;;;;;0.10;0.10;;;;;;;23.25;63.07;100888.34;5069291;28;20040;-68
2023/08/26 03:54:08;;;;;;;0.00;0.00;;;;;;;23.19;63.35;100893.09;5061198;28;20056;-67
2023/08/26 03:56:33;;;;;;;0.10;0.10;;;;;;;23.40;62.93;100899.81;5031034;28;20078;-67
2023/08/26 03:58:58;;;;;;;0.10;0.10;;;;;;;22.80;64.55;100898.31;5049914;28;20025;-67
2023/08/26 04:01:24;;;;;;;0.10;0.10;;;;;;;23.03;64.68;100900.03;5043036;28;20032;-67
2023/08/26 04:03:51;;;;;;;0.10;0.10;;;;;;;23.33;63.61;100893.91;5028741;28;20034;-68
2023/08/26 04:06:17;;;;;;;0.00;0.00;;;;;;;23.44;62.65;100889.03;5032481;28;20584;-67
2023/08/26 04:08:44;;;;;;;0.10;0.10;;;;;;;23.44;62.76;100900.00;5045604;28;20098;-67
2023/08/26 04:11:10;;;;;;;0.10;0.10;;;;;;;23.27;63.13;100894.31;5034705;28;20068;-67
2023/08/26 04:13:35;;;;;;;0.08;0.08;;;;;;;23.73;62.22;100896.84;5031365;28;20508;-66
2023/08/26 04:16:03;;;;;;;0.10;0.10;;;;;;;23.31;63.21;100907.13;5048484;28;20029;-67
2023/08/26 04:18:31;;;;;;;0.00;0.00;;;;;;;23.55;62.34;100907.69;5048642;28;20037;-69
2023/08/26 04:20:57;;;;;;;0.10;0.10;;;;;;;22.80;65.17;100909.28;5049112;28;20035;-68
2023/08/26 04:23:22;;;;;;;0.00;0.00;;;;;;;23.14;64.34;100912.41;5046794;28;20037;-68
2023/08/26 04:25:49;;;;;;;0.10;0.10;;;;;;;23.15;64.58;100915.97;5011579;28;20355;-67
2023/08/26 04:28:15;;;;;;;0.10;0.10;;;;;;;23.41;63.66;100914.31;5028490;28;20037;-68
2023/08/26 04:30:40;;;;;;;0.10;0.10;;;;;;;23.68;62.63;100910.69;5029111;28;20096;-68
2023/08/26 04:33:06;;;;;;;0.10;0.10;;;;;;;22.98;64.35;100919.31;5028733;28;20538;-68
2023/08/26 04:35:32;;;;;;;0.10;0.10;;;;;;;23.12;64.55;100914.66;5011043;28;20134;-68
2023/08/26 04:37:58;;;;;;;0.10;0.10;;;;;;;23.37;63.56;100918.81;5029653;28;20437;-67
2023/08/26 04:40:25;;;;;;;0.03;0.03;;;;;;;23.12;64.18;100920.13;5029056;28;20034;-67
2023/08/26 04:42:51;;;;;;;0.10;0.10;;;;;;;23.12;63.99;100922.03;5029080;28;20045;-66
2023/08/26 04:45:17;;;;;;;0.10;0.10;;;;;;;22.99;64.42;100931.09;5035203;28;20036;-67
2023/08/26 04:47:42;;;;;;;0.10;0.10;;;;;;;22.94;64.01;100929.28;5048812;28;20048;-68
2023/08/26 04:50:08;;;;;;;0.10;0.10;;;;;;;22.52;65.92;100930.34;5048304;28;20021;-68
2023/08/26 04:52:34;;;;;;;0.10;0.10;;;;;;;23.32;62.84;100925.22;5049256;28;20123;-68
2023/08/26 04:54:59;;;;;;;0.10;0.10;;;;;;;23.69;61.33;100924.09;5031619;28;20469;-67
2023/08/26 04:57:25;;;;;;;0.10;0.10;;;;;;;23.26;62.79;100936.56;5028542;28;20045;-68
2023/08/26 04:59:50;;;;;;;0.10;0.10;;;;;;;23.62;61.36;100931.94;5028561;28;20036;-68
2023/08/26 05:02:15;;;;;;;0.00;0.00;;;;;;;23.81;61.10;100932.59;5028509;28;20099;-68
2023/08/26 05:04:41;;;;;;;0.00;0.00;;;;;;;23.38;62.15;100942.38;5028932;28;20397;-68
2023/08/26 05:07:06;;;;;;;0.10;0.10;;;;;;;22.98;64.04;100960.44;5028422;28;20046;-66
2023/08/26 05:09:31;;;;;;;0.00;0.00;;;;;;;23.14;63.03;100947.22;5028615;28;20037;-68
2023/08/26 05:11:57;;;;;;;0.10;0.10;;;;;;;22.96;63.32;100951.72;5028612;28;20052;-69
2023/08/26 05:14:23;;;;;;;0.10;0.10;;;;;;;22.95;63.15;100950.09;5028562;28;20036;-68
2023/08/26 05:16:48;;;;;;;0.03;0.03;;;;;;;22.96;63.08;100953.66;5028833;28;20036;-68
2023/08/26 05:19:14;;;;;;;0.00;0.00;;;;;;;23.04;63.12;100958.41;5010376;28;20057;-67
2023/08/26 05:21:39;;;;;;;0.10;0.10;;;;;;;22.44;63.10;100952.97;5028149;28;20038;-67
2023/08/26 05:24:05;;;;;;;0.10;0.10;;;;;;;23.37;61.14;100958.00;5035790;28;20057;-67
2023/08/26 05:26:31;;;;;;;0.10;0.10;;;;;;;23.36;60.30;100955.56;5048370;28;20041;-67
2023/08/26 05:28:56;;;;;;;0.10;0.10;;;;;;;22.95;61.37;100961.06;5048492;28;20029;-68
2023/08/26 05:31:21;;;;;;;0.10;0.10;;;;;;;23.30;60.92;100954.03;5048313;28;20413;-68
2023/08/26 05:33:47;;;;;;;0.10;0.10;;;;;;;22.96;60.72;100959.94;5048156;28;20519;-68
2023/08/26 05:36:12;;;;;;;0.10;0.10;;;;;;;23.72;59.58;100950.13;5048268;28;20057;-67
2023/08/26 05:38:37;;;;;;;0.10;0.10;;;;;;;23.17;61.40;100963.09;5049536;28;20458;-68
2023/08/26 05:41:03;;;;;;;0.10;0.10;;;;;;;23.93;58.63;100954.00;5054954;28;20043;-67
2023/08/26 05:43:30;;;;;;;0.05;0.05;;;;;;;23.69;59.03;100959.75;5051780;28;20123;-67
2023/08/26 05:45:56;;;;;;;0.10;0.10;;;;;;;22.69;61.78;100968.13;5050283;28;20500;-68
2023/08/26 05:48:22;;;;;;;0.10;0.10;;;;;;;23.29;60.58;100969.66;5051534;28;20045;-67
2023/08/26 05:50:47;;;;;;;0.10;0.10;;;;;;;22.97;61.05;100972.53;5051662;28;20240;-67
2023/08/26 05:53:12;;;;;;;0.10;0.10;;;;;;;23.22;59.69;100971.19;5051404;28;20106;-67
2023/08/26 05:55:40;;;;;;;0.03;0.03;;;;;;;22.68;61.21;100967.31;5052111;28;20079;-67
2023/08/26 05:58:05;;;;;;;0.10;0.10;;;;;;;22.91;60.77;100975.66;5051801;28;20516;-68
2023/08/26 06:00:30;;;;;;;0.10;0.10;;;;;;;22.61;61.04;100983.34;5033569;28;20033;-68
2023/08/26 06:02:56;;;;;;;0.10;0.10;;;;;;;22.65;61.18;100980.81;5051616;28;20021;-68
2023/08/26 06:05:22;;;;;;;0.10;0.10;;;;;;;23.23;59.64;100983.81;5051494;28;20045;-68
2023/08/26 06:07:48;;;;;;;0.05;0.05;;;;;;;22.46;61.40;100980.84;5052063;28;20079;-67
2023/08/26 06:10:13;;;;;;;0.10;0.10;;;;;;;22.67;60.98;100981.31;5051439;28;20250;-67
2023/08/26 06:12:38;;;;;;;0.10;0.10;;;;;;;22.99;60.28;100984.00;5051458;28;20040;-67
2023/08/26 06:15:05;;;;;;;0.10;0.10;;;;;;;22.81;60.05;100978.59;5051291;28;20036;-66
2023/08/26 06:17:30;;;;;;;0.00;0.00;;;;;;;22.66;60.94;100979.72;5051446;28;20113;-67
2023/08/26 06:19:55;;;;;;;0.10;0.10;;;;;;;22.77;60.45;100986.63;5051577;28;20102;-68
2023/08/26 06:22:21;;;;;;;0.10;0.10;;;;;;;23.23;59.13;100986.56;5033248;28;20029;-67
2023/08/26 06:24:46;;;;;;;0.10;0.10;;;;;;;22.91;59.48;100976.50;5050817;28;20056;-66
2023/08/26 06:27:11;;;;;;;0.10;0.10;;;;;;;23.13;59.82;100984.00;5050802;28;20041;-67
2023/08/26 06:29:43;;;;;;;0.03;0.03;;;;;;;23.35;58.96;100987.66;5050989;28;20037;-68
2023/08/26 06:32:08;;;;;;;0.05;0.05;;;;;;;23.29;58.74;100990.81;5051056;28;20049;-68
2023/08/26 06:34:34;;;;;;;0.10;0.10;;;;;;;22.64;60.86;100985.47;5051565;28;20071;-67
2023/08/26 06:36:59;;;;;;;0.10;0.10;;;;;;;22.77;60.53;100986.63;5051066;28;20033;-68
2023/08/26 06:39:25;;;;;;;0.10;0.10;;;;;;;22.63;60.88;100983.03;5070796;28;20040;-68
2023/08/26 06:41:50;;;;;;;0.10;0.10;;;;;;;22.68;61.29;100977.47;5050652;28;20040;-68
2023/08/26 06:44:15;;;;;;;0.10;0.10;;;;;;;23.33;59.60;100989.91;5049597;28;20029;-68
2023/08/26 06:46:41;;;;;;;0.10;0.10;;;;;;;23.05;59.45;100991.03;5050407;28;20554;-67
2023/08/26 06:49:07;;;;;;;0.03;0.03;;;;;;;22.73;60.67;100990.25;5047070;28;20044;-67
2023/08/26 06:51:32;;;;;;;0.10;0.10;;;;;;;23.03;59.89;100987.78;5049769;28;20094;-69
2023/08/26 06:53:58;;;;;;;0.10;0.10;;;;;;;23.01;59.47;100990.00;5050571;28;20025;-68
2023/08/26 06:56:23;;;;;;;0.10;0.10;;;;;;;23.30;59.38;100985.00;5050598;28;20072;-69
2023/08/26 06:58:49;;;;;;;0.10;0.10;;;;;;;23.42;58.82;100990.81;5051043;28;20025;-68
2023/08/26 07:01:14;;;;;;;0.00;0.00;;;;;;;23.22;59.21;100987.66;5050775;28;20040;-67
2023/08/26 07:03:39;;;;;;;0.00;0.00;;;;;;;23.00;60.05;100991.09;5050524;28;20025;-68
2023/08/26 07:06:05;;;;;;;0.10;0.10;;;;;;;23.24;59.96;100986.22;5050214;28;20091;-66
2023/08/26 07:08:30;;;;;;;0.10;0.10;;;;;;;23.91;58.25;100980.94;5050325;28;20071;-68
2023/08/26 07:10:56;;;;;;;0.10;0.10;;;;;;;22.96;60.88;100987.34;5050885;28;20332;-68
2023/08/26 07:13:21;;;;;;;0.00;0.00;;;;;;;22.88;60.47;100990.00;5050257;28;20033;-68
2023/08/26 07:15:47;;;;;;;0.10;0.10;;;;;;;23.07;60.84;100990.72;5050018;28;20447;-67
2023/08/26 07:18:13;;;;;;;0.10;0.10;;;;;;;23.46;60.09;100983.59;5050072;28;20093;-67
2023/08/26 07:20:38;;;;;;;0.10;0.10;;;;;;;23.97;58.46;100985.19;5049748;28;20021;-68
2023/08/26 07:23:04;;;;;;;0.10;0.10;;;;;;;24.46;56.97;100987.03;5049973;28;20040;-66
2023/08/26 07:25:30;;;;;;;0.10;0.10;;;;;;;23.43;60.03;100995.19;5050108;28;20417;-67
2023/08/26 07:27:55;;;;;;;0.10;0.10;;;;;;;22.89;61.60;100999.81;5049788;28;20071;-68
2023/08/26 07:30:21;;;;;;;0.10;0.10;;;;;;;22.96;60.79;101001.03;5050069;28;20037;-67
2023/08/26 07:32:46;;;;;;;0.10;0.10;;;;;;;23.65;59.20;100999.91;5049952;28;20136;-67
2023/08/26 07:35:11;;;;;;;0.10;0.10;;;;;;;23.28;59.94;100992.72;5065859;28;20035;-68
2023/08/26 07:37:37;;;;;;;0.10;0.10;;;;;;;23.35;60.80;101001.38;5070367;28;20016;-67
2023/08/26 07:40:05;;;;;;;0.10;0.10;;;;;;;22.69;62.23;100990.06;5069784;28;20055;-68
2023/08/26 07:42:33;;;;;;;0.00;0.00;;;;;;;23.31;59.90;101000.38;5062922;28;20492;-67
2023/08/26 07:44:58;;;;;;;0.10;0.10;;;;;;;23.47;59.30;100987.13;5076031;28;20392;-67
2023/08/26 07:47:24;;;;;;;0.10;0.10;;;;;;;23.69;59.38;101000.09;5049524;28;20041;-70
2023/08/26 07:49:49;;;;;;;0.10;0.10;;;;;;;23.30;60.37;101000.66;5049763;28;20352;-68
2023/08/26 07:52:15;;;;;;;0.10;0.10;;;;;;;22.89;61.27;101000.66;5049576;28;20067;-67
2023/08/26 07:54:40;;;;;;;0.10;0.10;;;;;;;23.82;58.40;101000.06;5049427;28;20036;-67
2023/08/26 07:57:05;;;;;;;0.10;0.10;;;;;;;24.11;58.40;101002.47;5049461;28;20036;-67
2023/08/26 07:59:31;;;;;;;0.10;0.10;;;;;;;23.45;60.60;101005.84;5049488;28;20056;-68
2023/08/26 08:01:56;;;;;;;0.05;0.05;;;;;;;24.15;58.36;101008.97;5044990;28;20521;-70
2023/08/26 08:04:22;;;;;;;0.10;0.10;;;;;;;24.18;57.56;101006.41;5059793;28;20228;-68
2023/08/26 08:06:47;;;;;;;0.00;0.00;;;;;;;24.23;57.34;101002.72;5056969;28;20037;-68
2023/08/26 08:09:13;;;;;;;0.00;0.00;;;;;;;24.88;55.58;101006.56;5055354;28;20044;-67
2023/08/26 08:11:38;;;;;;;0.10;0.10;;;;;;;24.57;55.95;101015.88;5050647;28;20044;-68
2023/08/26 08:14:03;;;;;;;0.10;0.10;;;;;;;23.61;58.26;101026.34;5048530;28;20017;-69
2023/08/26 08:16:29;;;;;;;0.08;0.08;;;;;;;24.08;57.41;101020.38;5047274;28;20025;-67
2023/08/26 08:18:54;;;;;;;0.10;0.10;;;;;;;23.66;58.29;101030.94;5061292;28;20037;-68
2023/08/26 08:21:20;;;;;;;0.10;0.10;;;;;;;23.50;58.20;101039.50;5049179;28;20049;-67
2023/08/26 08:23:45;;;;;;;0.10;0.10;;;;;;;24.43;56.39;101029.72;5048512;28;20493;-68
2023/08/26 08:26:11;;;;;;;0.10;0.10;;;;;;;24.03;57.59;101041.66;5048722;28;20469;-68
2023/08/26 08:28:37;;;;;;;0.10;0.10;;;;;;;24.28;55.74;101038.28;5052186;28;20024;-68
2023/08/26 08:31:02;;;;;;;0.00;0.00;;;;;;;24.35;55.20;101047.72;5061769;28;20048;-68
2023/08/26 08:33:27;;;;;;;0.05;0.05;;;;;;;23.85;57.38;101053.56;5068766;28;20419;-67
2023/08/26 08:35:53;;;;;;;0.00;0.00;;;;;;;24.17;56.20;101043.25;5068988;28;20381;-68
2023/08/26 08:38:18;;;;;;;0.00;0.00;;;;;;;25.03;54.61;101043.81;5063580;28;20485;-69
2023/08/26 08:40:44;;;;;;;0.00;0.00;;;;;;;24.32;55.78;101050.28;5063331;28;20024;-68
2023/08/26 08:43:12;;;;;;;0.00;0.00;;;;;;;24.68;54.71;101034.56;5059168;28;20033;-68
2023/08/26 08:45:38;;;;;;;0.00;0.00;;;;;;;24.89;53.98;101032.91;5053441;28;20523;-68
2023/08/26 08:48:03;;;;;;;0.08;0.08;;;;;;;24.86;53.41;101028.06;5033192;28;20106;-68
2023/08/26 08:50:31;;;;;;;0.00;0.00;;;;;;;24.89;52.91;101045.84;5056326;28;20041;-68
2023/08/26 08:52:58;;;;;;;0.00;0.00;;;;;;;23.91;54.97;101033.91;5054885;28;20052;-67
2023/08/26 08:55:24;;;;;;;0.00;0.00;;;;;;;24.12;54.15;101026.03;5048378;28;20255;-67
2023/08/26 08:57:51;;;;;;;0.00;0.00;;;;;;;25.12;52.36;101025.41;5048018;28;20037;-68
2023/08/26 09:00:18;;;;;;;0.00;0.00;;;;;;;24.75;53.47;101031.38;5048431;28;20539;-68
2023/08/26 09:02:46;;;;;;;0.00;0.00;;;;;;;25.41;49.64;101033.16;5051986;28;20044;-68
2023/08/26 09:05:12;;;;;;;0.00;0.00;;;;;;;25.45;49.63;101032.22;5046996;28;20074;-66
2023/08/26 09:07:39;;;;;;;0.00;0.00;;;;;;;24.99;51.28;101038.16;5047736;28;20040;-70
2023/08/26 09:10:05;;;;;;;0.00;0.00;;;;;;;25.95;49.72;101027.91;5047425;28;20041;-68
2023/08/26 09:12:31;;;;;;;0.00;0.00;;;;;;;24.63;51.28;101042.91;5048404;28;20183;-69
2023/08/26 09:14:56;;;;;;;0.00;0.00;;;;;;;24.86;50.10;101039.06;5067261;28;20045;-68
2023/08/26 09:17:22;;;;;;;0.00;0.00;;;;;;;24.34;51.42;101037.88;5052171;28;20025;-69
2023/08/26 09:19:58;;;;;;;0.00;0.00;;;;;;;25.27;50.20;101038.75;5052303;28;20521;-68
2023/08/26 09:22:25;;;;;;;0.00;0.00;;;;;;;25.32;49.28;101032.31;5056283;28;20044;-69
2023/08/26 09:24:59;;;;;;;0.00;0.00;;;;;;;25.16;49.56;101037.41;5051343;28;20055;-69
2023/08/26 09:27:25;;;;;;;0.00;0.00;;;;;;;26.00;47.33;101033.25;5053636;28;20052;-69
2023/08/26 09:29:51;;;;;;;0.00;0.00;;;;;;;24.83;49.42;101028.69;5056150;28;20028;-69
2023/08/26 09:32:35;;;;;;;0.00;0.00;;;;;;;24.46;49.68;101022.75;5057822;28;20035;-70
2023/08/26 09:35:11;;;;;;;0.00;0.00;;;;;;;25.20;49.54;101022.69;5060631;28;20069;-68
2023/08/26 09:37:38;;;;;;;0.00;0.00;;;;;;;25.47;49.20;101016.19;5054363;28;20139;-67
2023/08/26 09:40:04;;;;;;;0.00;0.00;;;;;;;25.77;48.21;101017.19;5056707;28;20133;-70
2023/08/26 09:42:30;;;;;;;0.00;0.00;;;;;;;25.59;47.24;101032.88;5061063;28;20037;-69
2023/08/26 09:44:56;;;;;;;0.00;0.00;;;;;;;25.49;47.58;101024.13;5060534;28;20368;-69
2023/08/26 09:47:27;;;;;;;0.05;0.05;;;;;;;26.34;45.38;101039.94;5061415;28;20136;-69
2023/08/26 09:49:52;;;;;;;0.00;0.00;;;;;;;26.61;44.66;101028.56;5060393;28;20025;-69
2023/08/26 09:52:19;;;;;;;0.00;0.00;;;;;;;25.77;46.66;101030.97;5060828;28;20428;-69
2023/08/26 09:54:45;;;;;;;0.00;0.00;;;;;;;25.45;47.92;101034.97;5051240;28;20090;-69
2023/08/26 09:57:11;;;;;;;0.03;0.03;;;;;;;24.39;51.70;101037.72;5053250;28;20033;-70
2023/08/26 09:59:37;;;;;;;0.00;0.00;;;;;;;25.77;48.63;101039.22;5061529;28;20024;-69
2023/08/26 10:02:11;;;;;;;0.00;0.00;;;;;;;25.91;47.84;101037.94;5048697;28;20079;-67
2023/08/26 10:04:37;;;;;;;0.00;0.00;;;;;;;26.37;47.51;101040.09;5056152;28;20377;-68
2023/08/26 10:07:04;;;;;;;0.00;0.00;;;;;;;26.61;45.84;101040.38;5060039;28;20400;-69
2023/08/26 10:10:04;;;;;;;0.00;0.00;;;;;;;26.04;46.46;101042.50;5061635;28;20029;-70
2023/08/26 10:12:36;;;;;;;0.00;0.00;;;;;;;26.28;46.84;101044.00;5058216;28;20078;-69
2023/08/26 10:15:07;;;;;;;0.00;0.00;;;;;;;26.18;46.58;101042.34;5057278;28;20032;-69
2023/08/26 10:17:33;;;;;;;0.00;0.00;;;;;;;26.83;44.75;101039.38;5060764;28;20024;-68
2023/08/26 10:19:59;;;;;;;0.00;0.00;;;;;;;26.07;45.22;101050.16;5062866;28;20098;-70
2023/08/26 10:22:25;;;;;;;0.00;0.00;;;;;;;26.78;44.91;101032.13;5058226;28;20037;-69
2023/08/26 10:24:51;;;;;;;0.00;0.00;;;;;;;27.16;43.73;101051.47;5049568;28;20037;-69
2023/08/26 10:27:17;;;;;;;0.00;0.00;;;;;;;27.48;42.05;101039.78;5054103;28;20445;-69
2023/08/26 10:29:44;;;;;;;0.00;0.00;;;;;;;26.54;44.39;101045.59;5044614;28;20037;-69
2023/08/26 10:32:20;;;;;;;0.00;0.00;;;;;;;27.31;43.06;101048.16;5043838;28;20028;-69
2023/08/26 10:34:54;;;;;;;0.00;0.00;;;;;;;26.62;43.79;101047.53;5046929;28;20030;-68
2023/08/26 10:37:22;;;;;;;0.00;0.00;;;;;;;26.20;44.48;101047.56;5030585;28;20030;-68
2023/08/26 10:39:47;;;;;;;0.00;0.00;;;;;;;26.60;43.39;101047.03;5030912;28;20533;-67
2023/08/26 10:42:17;;;;;;;0.00;0.00;;;;;;;26.22;45.14;101050.81;5039948;28;20025;-68
2023/08/26 10:44:57;;;;;;;0.00;0.00;;;;;;;26.41;45.53;101049.34;5058323;28;20518;-68
2023/08/26 10:47:46;;;;;;;0.00;0.00;;;;;;;27.39;42.98;101052.03;5059706;28;20094;-68
2023/08/26 10:50:22;;;;;;;0.00;0.00;;;;;;;27.71;42.28;101045.84;5065126;28;20060;-68
2023/08/26 10:53:14;;;;;;;0.00;0.00;;;;;;;27.35;42.48;101051.06;5053251;28;20493;-68
2023/08/26 10:55:39;;;;;;;0.00;0.00;;;;;;;26.17;44.20;101038.00;5049184;28;20040;-67
2023/08/26 10:58:15;;;;;;;0.00;0.00;;;;;;;27.26;42.34;101047.53;5049615;28;20123;-69
2023/08/26 11:00:49;;;;;;;0.00;0.00;;;;;;;26.19;43.04;101037.66;5049858;28;20513;-66
2023/08/26 11:03:25;;;;;;;0.00;0.00;;;;;;;27.24;42.04;101044.28;5047912;28;20049;-66
2023/08/26 11:06:05;;;;;;;0.00;0.00;;;;;;;26.74;42.86;101047.69;5046593;28;20066;-68
2023/08/26 11:08:31;;;;;;;0.00;0.00;;;;;;;26.67;42.04;101055.59;5053957;28;20098;-68
2023/08/26 11:10:57;;;;;;;0.00;0.00;;;;;;;27.58;41.02;101053.22;5051399;28;20035;-68
2023/08/26 11:13:23;;;;;;;0.00;0.00;;;;;;;27.23;42.02;101051.75;5049308;28;20033;-68
2023/08/26 11:15:52;;;;;;;0.00;0.00;;;;;;;27.15;41.54;101055.34;5049327;28;20086;-68
2023/08/26 11:18:21;;;;;;;0.00;0.00;;;;;;;27.47;41.11;101062.22;5030770;28;20033;-68
2023/08/26 11:20:46;;;;;;;0.00;0.00;;;;;;;26.79;40.90;101038.44;5046893;28;20036;-68